Time;durP1;ratioP1;P1;durP2;ratioP2;P2;SDS_P1;SDS_P2;PMS_P1;PMS_P2;Temp;Humidity;BMP_temperature;BMP_pressure;BME280_temperature;BME280_humidity;BME280_pressure;Samples;Min_cycle;Max_cycle;Signal;HPM_P1;HPM_P2
2021/12/27 00:01:06;;;;;;;39.30;26.15;;;-5.90;82.00;;;;;;6214156;23;20005;-57
2021/12/27 00:03:31;;;;;;;28.83;18.80;;;-5.70;80.80;;;;;;6213930;23;20000;-58
2021/12/27 00:05:57;;;;;;;23.50;14.52;;;-5.50;80.00;;;;;;6213915;23;20095;-58
2021/12/27 00:08:23;;;;;;;20.42;11.95;;;-5.40;79.30;;;;;;6214287;23;20328;-57
2021/12/27 00:10:50;;;;;;;17.05;10.35;;;-5.30;78.80;;;;;;6214919;23;20015;-57
2021/12/27 00:13:16;;;;;;;22.75;14.13;;;-5.20;78.30;;;;;;6214487;23;20092;-59
2021/12/27 00:15:43;;;;;;;28.08;15.80;;;-5.10;77.90;;;;;;6213858;23;20036;-58
2021/12/27 00:18:09;;;;;;;23.25;13.98;;;-5.10;77.50;;;;;;6213842;23;20024;-60
2021/12/27 00:20:35;;;;;;;26.23;16.88;;;-5.10;77.40;;;;;;6187517;23;19997;-64
2021/12/27 00:23:04;;;;;;;30.70;16.42;;;-5.10;77.50;;;;;;6187087;23;20003;-66
2021/12/27 00:25:30;;;;;;;24.15;13.10;;;-5.00;77.00;;;;;;6214053;23;20407;-65
2021/12/27 00:27:57;;;;;;;20.92;12.05;;;-5.10;76.00;;;;;;6214233;23;20032;-67
2021/12/27 00:30:23;;;;;;;23.15;13.00;;;-5.20;76.00;;;;;;6213548;23;20395;-64
2021/12/27 00:32:50;;;;;;;18.88;11.75;;;-5.40;76.40;;;;;;6214340;23;20035;-65
2021/12/27 00:35:18;;;;;;;17.35;10.15;;;-5.60;77.10;;;;;;6186942;23;20044;-65
2021/12/27 00:37:44;;;;;;;18.55;9.85;;;-5.80;77.60;;;;;;6214037;23;20328;-65
2021/12/27 00:40:11;;;;;;;20.10;10.43;;;-5.90;78.00;;;;;;6213759;23;20005;-66
2021/12/27 00:42:37;;;;;;;16.50;9.88;;;-6.00;78.70;;;;;;6213396;23;19993;-66
2021/12/27 00:45:04;;;;;;;20.55;10.80;;;-6.10;78.90;;;;;;6213214;23;20399;-66
2021/12/27 00:47:29;;;;;;;21.33;11.95;;;-6.20;79.10;;;;;;6213809;23;20367;-65
2021/12/27 00:49:55;;;;;;;19.38;11.18;;;-6.20;79.50;;;;;;6186771;23;20039;-64
2021/12/27 00:52:21;;;;;;;19.48;10.75;;;-6.30;79.70;;;;;;6213215;23;20016;-66
2021/12/27 00:54:46;;;;;;;17.65;10.00;;;-6.30;79.70;;;;;;6213883;23;20001;-60
2021/12/27 00:57:12;;;;;;;242.98;162.05;;;-6.30;80.00;;;;;;6213148;23;20019;-59
2021/12/27 00:59:38;;;;;;;211.77;156.05;;;-6.30;81.10;;;;;;6213809;23;20071;-62
2021/12/27 01:02:03;;;;;;;123.25;91.72;;;-6.10;81.90;;;;;;6213612;23;20004;-62
2021/12/27 01:04:29;;;;;;;72.88;52.80;;;-5.90;80.60;;;;;;6213980;23;20401;-65
2021/12/27 01:06:54;;;;;;;49.83;36.78;;;-5.70;79.90;;;;;;6213547;23;20005;-63
2021/12/27 01:09:36;;;;;;;39.85;28.13;;;-5.70;79.20;;;;;;6213442;23;20015;-63
2021/12/27 01:15:06;;;;;;;26.10;16.27;;;-5.60;78.20;;;;;;6213499;23;20090;-63
2021/12/27 01:17:31;;;;;;;27.23;14.70;;;-5.60;77.80;;;;;;6213158;23;20844;-64
2021/12/27 01:19:57;;;;;;;22.70;12.82;;;-5.70;77.60;;;;;;6213712;23;20000;-62
2021/12/27 01:22:23;;;;;;;19.55;10.80;;;-5.70;77.60;;;;;;6213162;23;20412;-62
2021/12/27 01:24:48;;;;;;;17.08;9.90;;;-5.70;77.80;;;;;;6213254;23;20004;-61
2021/12/27 01:27:14;;;;;;;15.43;8.45;;;-5.70;77.60;;;;;;6213121;23;20444;-62
2021/12/27 01:29:40;;;;;;;15.15;7.90;;;-5.80;77.50;;;;;;6186904;23;20150;-63
2021/12/27 01:32:06;;;;;;;14.05;7.97;;;-5.80;77.50;;;;;;6213063;23;20368;-62
2021/12/27 01:34:32;;;;;;;14.70;8.23;;;-5.80;77.40;;;;;;6186872;23;20321;-61
2021/12/27 01:36:58;;;;;;;16.52;8.02;;;-5.80;77.50;;;;;;6213300;23;20328;-63
2021/12/27 01:39:24;;;;;;;129.02;85.28;;;-5.90;77.40;;;;;;6213096;23;19997;-64
2021/12/27 01:41:51;;;;;;;75.63;51.38;;;-5.90;77.70;;;;;;6187067;23;20015;-69
2021/12/27 01:44:17;;;;;;;60.13;41.53;;;-5.80;77.40;;;;;;6213588;23;20087;-64
2021/12/27 01:46:43;;;;;;;52.42;34.28;;;-5.80;76.80;;;;;;6213243;23;20030;-67
2021/12/27 01:49:08;;;;;;;44.28;28.73;;;-5.90;76.80;;;;;;6213697;23;20005;-64
2021/12/27 01:51:39;;;;;;;37.60;23.40;;;-6.00;76.90;;;;;;6213452;23;20385;-61
2021/12/27 01:54:05;;;;;;;32.53;20.30;;;-6.00;76.90;;;;;;6213225;23;20009;-62
2021/12/27 01:56:31;;;;;;;28.33;16.38;;;-6.10;77.20;;;;;;6186733;23;20154;-63
2021/12/27 01:58:58;;;;;;;29.33;14.77;;;-6.10;77.20;;;;;;6212975;23;20365;-62
2021/12/27 02:01:25;;;;;;;23.83;13.27;;;-6.20;77.20;;;;;;6213266;23;20003;-63
2021/12/27 02:03:53;;;;;;;22.83;12.77;;;-6.20;77.20;;;;;;6213058;23;20004;-63
2021/12/27 02:06:20;;;;;;;23.17;12.68;;;-6.20;77.40;;;;;;6212393;23;20004;-62
2021/12/27 02:08:46;;;;;;;20.02;11.32;;;-6.30;77.20;;;;;;6213212;23;20055;-62
2021/12/27 02:11:15;;;;;;;20.02;11.95;;;-6.30;77.30;;;;;;6213166;23;20056;-64
2021/12/27 02:13:45;;;;;;;19.20;11.32;;;-6.30;77.50;;;;;;6213170;23;20052;-63
2021/12/27 02:16:20;;;;;;;18.13;10.82;;;-6.30;77.40;;;;;;6213104;23;20055;-62
2021/12/27 02:18:48;;;;;;;17.63;10.30;;;-6.30;77.60;;;;;;6213420;23;20000;-63
2021/12/27 02:21:15;;;;;;;15.55;8.93;;;-6.30;77.60;;;;;;6213586;23;20059;-63
2021/12/27 02:23:41;;;;;;;17.58;10.02;;;-6.30;77.60;;;;;;6213258;23;20008;-62
2021/12/27 02:26:08;;;;;;;16.42;9.30;;;-6.30;77.40;;;;;;6213058;23;20017;-62
2021/12/27 02:28:34;;;;;;;17.90;9.43;;;-6.30;77.20;;;;;;6214184;23;20011;-62
2021/12/27 02:31:00;;;;;;;15.98;9.23;;;-6.30;77.20;;;;;;6214925;23;20435;-62
2021/12/27 02:33:26;;;;;;;15.93;8.73;;;-6.30;77.30;;;;;;6214811;23;20028;-62
2021/12/27 02:35:54;;;;;;;14.95;8.32;;;-6.40;77.20;;;;;;6215376;23;20032;-63
2021/12/27 02:38:25;;;;;;;15.68;8.68;;;-6.40;77.20;;;;;;6214599;23;20001;-63
2021/12/27 02:40:52;;;;;;;17.48;9.68;;;-6.40;77.30;;;;;;6215131;23;20484;-62
2021/12/27 02:43:20;;;;;;;17.85;10.45;;;-6.40;77.40;;;;;;6215376;23;20001;-62
2021/12/27 02:45:49;;;;;;;19.20;10.10;;;-6.50;77.50;;;;;;6215414;23;20012;-63
2021/12/27 02:48:16;;;;;;;16.85;9.35;;;-6.50;77.20;;;;;;6215129;23;20019;-62
2021/12/27 02:50:45;;;;;;;16.42;8.48;;;-6.50;77.10;;;;;;6214861;23;20108;-63
2021/12/27 02:53:12;;;;;;;18.25;9.52;;;-6.50;77.20;;;;;;6214919;23;20439;-63
2021/12/27 02:55:38;;;;;;;19.92;10.50;;;-6.60;77.60;;;;;;6215155;23;20475;-61
2021/12/27 02:58:05;;;;;;;19.85;10.25;;;-6.60;77.10;;;;;;6214999;23;20001;-62
2021/12/27 03:00:34;;;;;;;18.60;10.15;;;-6.70;77.20;;;;;;6214727;23;20001;-62
2021/12/27 03:03:00;;;;;;;20.70;9.88;;;-6.70;77.30;;;;;;6215134;23;20004;-62
2021/12/27 03:05:29;;;;;;;19.50;9.60;;;-6.70;77.50;;;;;;6214458;23;20000;-61
2021/12/27 03:07:56;;;;;;;17.63;8.75;;;-6.70;77.50;;;;;;6214768;23;20076;-63
2021/12/27 03:10:29;;;;;;;15.73;8.68;;;-6.70;77.80;;;;;;6214477;23;20047;-63
2021/12/27 03:12:55;;;;;;;17.35;8.55;;;-6.80;77.50;;;;;;6215193;23;20327;-63
2021/12/27 03:15:23;;;;;;;15.23;8.57;;;-6.80;77.60;;;;;;6214563;23;20304;-63
2021/12/27 03:17:50;;;;;;;15.40;8.50;;;-6.80;77.70;;;;;;6214709;23;20320;-64
2021/12/27 03:20:18;;;;;;;15.77;8.23;;;-6.90;77.60;;;;;;6214468;23;19996;-63
2021/12/27 03:22:44;;;;;;;17.25;8.55;;;-6.90;77.70;;;;;;6214758;23;20103;-64
2021/12/27 03:25:18;;;;;;;18.45;8.90;;;-6.90;77.90;;;;;;6214341;23;20165;-63
2021/12/27 03:27:45;;;;;;;17.88;9.23;;;-6.90;77.90;;;;;;6215268;23;20008;-63
2021/12/27 03:30:15;;;;;;;23.70;12.38;;;-6.90;77.80;;;;;;6214695;23;20107;-63
2021/12/27 03:32:40;;;;;;;21.42;12.10;;;-6.90;77.80;;;;;;6214809;23;20393;-64
2021/12/27 03:35:14;;;;;;;19.38;11.18;;;-6.90;78.60;;;;;;6214866;23;20005;-64
2021/12/27 03:37:50;;;;;;;27.50;14.52;;;-7.00;79.00;;;;;;6214531;23;20004;-63
2021/12/27 03:40:18;;;;;;;29.95;16.75;;;-7.00;79.50;;;;;;6187394;23;20105;-63
2021/12/27 03:42:50;;;;;;;25.98;15.73;;;-7.00;79.30;;;;;;6214886;23;20004;-62
2021/12/27 03:45:17;;;;;;;25.60;14.15;;;-6.90;79.30;;;;;;6211433;23;20462;-63
2021/12/27 03:47:43;;;;;;;21.23;12.93;;;-6.90;79.40;;;;;;6214723;23;20028;-63
2021/12/27 03:50:09;;;;;;;23.75;13.07;;;-6.90;79.30;;;;;;6214849;23;20000;-63
2021/12/27 03:52:37;;;;;;;20.48;11.40;;;-6.80;79.60;;;;;;6215021;23;19996;-63
2021/12/27 03:55:03;;;;;;;17.73;10.23;;;-6.80;79.40;;;;;;6188062;23;20024;-63
2021/12/27 03:57:31;;;;;;;17.02;9.77;;;-6.70;79.40;;;;;;6214830;23;20008;-63
2021/12/27 04:00:28;;;;;;;17.70;9.77;;;-6.60;79.40;;;;;;6214444;23;20324;-63
2021/12/27 04:02:57;;;;;;;17.25;9.82;;;-6.50;79.30;;;;;;6214340;23;20000;-63
2021/12/27 04:05:24;;;;;;;19.08;9.93;;;-6.50;79.10;;;;;;6214147;23;19997;-63
2021/12/27 04:07:59;;;;;;;20.48;10.82;;;-6.40;79.10;;;;;;6214791;23;20003;-63
2021/12/27 04:10:26;;;;;;;22.15;12.07;;;-6.40;79.00;;;;;;6214533;23;19996;-63
2021/12/27 04:12:52;;;;;;;18.63;10.68;;;-6.30;78.90;;;;;;6214644;23;19997;-63
2021/12/27 04:15:18;;;;;;;20.15;11.57;;;-6.30;78.90;;;;;;6214370;23;20004;-63
2021/12/27 04:17:43;;;;;;;21.25;11.98;;;-6.20;78.90;;;;;;6214428;23;20004;-64
2021/12/27 04:20:09;;;;;;;25.33;13.60;;;-6.10;78.80;;;;;;6214254;23;20001;-64
2021/12/27 04:22:35;;;;;;;45.95;27.55;;;-6.10;78.70;;;;;;6214575;23;20031;-64
2021/12/27 04:25:01;;;;;;;44.50;27.10;;;-6.00;78.60;;;;;;6214598;23;20016;-63
2021/12/27 04:27:27;;;;;;;35.65;21.98;;;-6.00;78.50;;;;;;6214592;23;20020;-65
2021/12/27 04:29:53;;;;;;;31.35;18.25;;;-5.90;78.40;;;;;;6214216;23;20013;-65
2021/12/27 04:32:19;;;;;;;26.73;15.45;;;-5.90;78.30;;;;;;6213944;23;20004;-65
2021/12/27 04:34:45;;;;;;;24.67;13.90;;;-5.90;78.20;;;;;;6214319;23;20004;-66
2021/12/27 04:37:10;;;;;;;21.02;12.20;;;-5.80;78.20;;;;;;6214122;23;20019;-64
2021/12/27 04:39:36;;;;;;;22.45;13.05;;;-5.80;78.20;;;;;;6214298;23;20371;-64
2021/12/27 04:42:04;;;;;;;23.40;13.25;;;-5.80;78.10;;;;;;6214384;23;20417;-64
2021/12/27 04:44:30;;;;;;;26.30;16.38;;;-5.70;78.20;;;;;;6214522;23;20438;-64
2021/12/27 04:46:55;;;;;;;29.23;19.17;;;-5.70;78.30;;;;;;6214264;23;20138;-65
2021/12/27 04:49:21;;;;;;;29.48;19.92;;;-5.70;78.40;;;;;;6214444;23;20004;-65
2021/12/27 04:51:47;;;;;;;32.72;22.48;;;-5.70;78.40;;;;;;6214247;23;20039;-66
2021/12/27 04:54:13;;;;;;;27.23;18.10;;;-5.60;78.50;;;;;;6214153;23;20008;-65
2021/12/27 04:56:38;;;;;;;23.80;15.13;;;-5.60;78.50;;;;;;6214733;23;20714;-64
2021/12/27 04:59:04;;;;;;;20.77;13.40;;;-5.50;78.60;;;;;;6213826;23;20072;-64
2021/12/27 05:01:30;;;;;;;22.23;14.20;;;-5.50;78.60;;;;;;6214487;23;20106;-66
2021/12/27 05:03:56;;;;;;;21.48;13.07;;;-5.40;78.60;;;;;;6214062;23;20044;-64
2021/12/27 05:06:21;;;;;;;19.17;12.27;;;-5.40;78.60;;;;;;6214165;23;20005;-64
2021/12/27 05:08:48;;;;;;;24.13;14.65;;;-5.30;78.50;;;;;;6213575;23;20027;-64
2021/12/27 05:11:14;;;;;;;22.23;13.35;;;-5.30;78.50;;;;;;6214340;23;20007;-65
2021/12/27 05:13:41;;;;;;;22.98;13.68;;;-5.20;78.60;;;;;;6213662;23;20024;-64
2021/12/27 05:16:07;;;;;;;22.35;13.15;;;-5.20;78.70;;;;;;6212574;23;20005;-65
2021/12/27 05:18:32;;;;;;;19.17;12.00;;;-5.10;78.70;;;;;;6214122;23;20420;-65
2021/12/27 05:20:58;;;;;;;20.45;11.30;;;-5.00;78.60;;;;;;6213946;23;20047;-64
2021/12/27 05:23:24;;;;;;;16.27;9.95;;;-5.00;78.50;;;;;;6213753;23;20003;-63
2021/12/27 05:25:51;;;;;;;17.02;10.00;;;-5.00;78.50;;;;;;6213910;23;20020;-65
2021/12/27 05:28:17;;;;;;;17.67;9.50;;;-4.90;78.60;;;;;;6213689;23;20007;-65
2021/12/27 05:30:43;;;;;;;20.05;11.20;;;-4.90;78.60;;;;;;6213675;23;20004;-64
2021/12/27 05:33:10;;;;;;;21.02;11.20;;;-4.90;78.50;;;;;;6214122;23;20005;-65
2021/12/27 05:35:35;;;;;;;18.52;11.10;;;-4.90;78.60;;;;;;6213659;23;20007;-65
2021/12/27 05:38:01;;;;;;;22.08;13.27;;;-4.90;78.70;;;;;;6214396;23;19997;-63
2021/12/27 05:40:27;;;;;;;36.55;23.05;;;-4.90;78.90;;;;;;6213698;23;20008;-64
2021/12/27 05:42:54;;;;;;;32.35;21.42;;;-4.80;78.80;;;;;;6213375;23;20071;-65
2021/12/27 05:45:20;;;;;;;27.77;17.83;;;-4.80;78.70;;;;;;6213655;23;20162;-63
2021/12/27 05:47:46;;;;;;;23.58;15.18;;;-4.70;78.70;;;;;;6213972;23;19997;-65
2021/12/27 05:50:13;;;;;;;20.50;13.38;;;-4.70;78.80;;;;;;6213971;23;20067;-65
2021/12/27 05:52:39;;;;;;;21.52;13.65;;;-4.70;78.70;;;;;;6214082;23;19993;-64
2021/12/27 05:55:07;;;;;;;19.10;11.80;;;-4.70;78.70;;;;;;6214005;23;20011;-64
2021/12/27 05:57:33;;;;;;;17.20;10.85;;;-4.60;78.90;;;;;;6213558;23;20005;-64
2021/12/27 05:59:59;;;;;;;16.88;9.90;;;-4.60;78.90;;;;;;6214112;23;20011;-64
2021/12/27 06:02:24;;;;;;;16.05;9.55;;;-4.60;78.80;;;;;;6213548;23;20008;-66
2021/12/27 06:04:50;;;;;;;15.40;9.43;;;-4.60;78.80;;;;;;6186787;23;20100;-66
2021/12/27 06:07:16;;;;;;;16.42;9.20;;;-4.60;78.90;;;;;;6186703;23;20012;-65
2021/12/27 06:09:42;;;;;;;16.20;9.13;;;-4.50;79.00;;;;;;6213016;23;20004;-64
2021/12/27 06:12:08;;;;;;;15.40;8.85;;;-4.50;79.00;;;;;;6213670;23;20381;-64
2021/12/27 06:14:33;;;;;;;17.10;9.15;;;-4.50;79.00;;;;;;6213377;23;20425;-64
2021/12/27 06:16:59;;;;;;;16.52;8.95;;;-4.50;79.10;;;;;;6213812;23;20007;-64
2021/12/27 06:19:25;;;;;;;14.15;8.38;;;-4.50;79.00;;;;;;6213720;23;19996;-65
2021/12/27 06:21:51;;;;;;;14.65;8.63;;;-4.40;79.10;;;;;;6213844;23;20001;-65
2021/12/27 06:24:17;;;;;;;13.40;8.02;;;-4.40;79.10;;;;;;6213431;23;20000;-63
2021/12/27 06:26:43;;;;;;;13.77;8.02;;;-4.40;79.10;;;;;;6213043;23;20063;-64
2021/12/27 06:29:08;;;;;;;13.30;7.68;;;-4.30;79.10;;;;;;6213782;23;20516;-65
2021/12/27 06:31:34;;;;;;;13.93;8.38;;;-4.30;79.10;;;;;;6213607;23;20062;-64
2021/12/27 06:34:00;;;;;;;14.07;8.20;;;-4.30;79.10;;;;;;6213413;23;20035;-64
2021/12/27 06:36:25;;;;;;;14.88;8.38;;;-4.30;79.00;;;;;;6213696;23;20320;-66
2021/12/27 06:38:51;;;;;;;14.32;8.23;;;-4.20;79.00;;;;;;6213522;23;20080;-64
2021/12/27 06:41:17;;;;;;;13.57;8.20;;;-4.20;79.10;;;;;;6213980;23;20103;-65
2021/12/27 06:43:42;;;;;;;14.45;8.10;;;-4.20;79.00;;;;;;6213286;23;20072;-65
2021/12/27 06:46:08;;;;;;;14.95;8.35;;;-4.10;78.90;;;;;;6213398;23;20011;-64
2021/12/27 06:48:34;;;;;;;13.13;7.72;;;-4.10;78.90;;;;;;6212939;23;20012;-64
2021/12/27 06:51:00;;;;;;;14.38;8.45;;;-4.10;79.00;;;;;;6213348;23;20369;-63
2021/12/27 06:53:30;;;;;;;14.82;8.55;;;-4.10;79.00;;;;;;6212902;23;20000;-63
2021/12/27 06:55:56;;;;;;;14.13;8.40;;;-4.00;79.00;;;;;;6213078;23;20366;-63
2021/12/27 06:58:22;;;;;;;13.35;8.02;;;-4.00;78.80;;;;;;6213119;23;20001;-64
2021/12/27 07:00:48;;;;;;;14.63;8.35;;;-3.90;78.70;;;;;;6212749;23;20000;-64
2021/12/27 07:03:14;;;;;;;12.90;7.88;;;-3.90;78.60;;;;;;6212369;23;20019;-64
2021/12/27 07:05:41;;;;;;;14.13;8.15;;;-3.90;78.70;;;;;;6213275;23;20008;-62
2021/12/27 07:08:07;;;;;;;13.60;8.20;;;-3.90;78.70;;;;;;6212811;23;20009;-63
2021/12/27 07:10:33;;;;;;;13.57;8.20;;;-3.90;78.80;;;;;;6212654;23;20039;-63
2021/12/27 07:12:59;;;;;;;13.77;8.00;;;-3.90;78.90;;;;;;6212878;23;20054;-64
2021/12/27 07:15:25;;;;;;;13.60;8.20;;;-3.90;78.80;;;;;;6213558;23;20000;-64
2021/12/27 07:17:51;;;;;;;13.15;7.85;;;-3.90;78.80;;;;;;6214981;23;20007;-63
2021/12/27 07:20:17;;;;;;;14.07;8.68;;;-3.90;78.90;;;;;;6214964;23;20106;-64
2021/12/27 07:22:42;;;;;;;15.02;8.98;;;-3.80;79.00;;;;;;6214876;23;20047;-64
2021/12/27 07:25:09;;;;;;;14.07;8.25;;;-3.80;79.00;;;;;;6214834;23;20012;-64
2021/12/27 07:27:34;;;;;;;13.95;8.13;;;-3.70;78.80;;;;;;6214678;23;20017;-64
2021/12/27 07:30:00;;;;;;;13.52;8.13;;;-3.70;78.70;;;;;;6214448;23;20375;-64
2021/12/27 07:32:26;;;;;;;14.07;8.55;;;-3.70;78.70;;;;;;6214701;23;20000;-64
2021/12/27 07:34:52;;;;;;;16.17;9.00;;;-3.70;78.70;;;;;;6187758;23;20015;-64
2021/12/27 07:37:17;;;;;;;15.30;9.07;;;-3.60;78.80;;;;;;6214903;23;20314;-63
2021/12/27 07:39:44;;;;;;;13.63;8.20;;;-3.60;78.90;;;;;;6214795;23;20001;-63
2021/12/27 07:42:10;;;;;;;14.65;8.90;;;-3.60;78.80;;;;;;6214471;23;20008;-65
2021/12/27 07:44:35;;;;;;;16.25;8.90;;;-3.50;78.70;;;;;;6187387;23;20432;-65
2021/12/27 07:47:01;;;;;;;15.70;8.75;;;-3.50;78.70;;;;;;6214386;23;20005;-65
2021/12/27 07:49:27;;;;;;;16.35;8.90;;;-3.40;78.50;;;;;;6214794;23;20004;-64
2021/12/27 07:51:53;;;;;;;15.73;9.40;;;-3.40;78.40;;;;;;6213519;23;20372;-64
2021/12/27 07:54:18;;;;;;;14.18;8.55;;;-3.40;78.30;;;;;;6214513;23;20086;-64
2021/12/27 07:56:44;;;;;;;14.32;8.02;;;-3.40;78.40;;;;;;6214512;23;20000;-63
2021/12/27 07:59:10;;;;;;;14.57;8.15;;;-3.40;78.40;;;;;;6214867;23;20001;-64
2021/12/27 08:01:38;;;;;;;12.82;7.22;;;-3.40;78.50;;;;;;6214725;23;20333;-65
2021/12/27 08:04:05;;;;;;;11.98;6.78;;;-3.40;78.60;;;;;;6214215;23;20028;-65
2021/12/27 08:06:31;;;;;;;11.60;6.72;;;-3.40;78.60;;;;;;6214204;23;20000;-64
2021/12/27 08:08:58;;;;;;;11.57;6.55;;;-3.30;78.60;;;;;;6214061;23;20000;-67
2021/12/27 08:11:25;;;;;;;13.05;6.60;;;-3.30;78.60;;;;;;6214196;23;20001;-65
2021/12/27 08:13:50;;;;;;;10.80;6.10;;;-3.30;78.30;;;;;;6214267;23;20009;-68
2021/12/27 08:16:17;;;;;;;11.65;6.40;;;-3.30;78.20;;;;;;6214128;23;20088;-64
2021/12/27 08:18:46;;;;;;;10.98;6.05;;;-3.30;78.30;;;;;;6187673;23;20057;-64
2021/12/27 08:21:12;;;;;;;10.73;6.18;;;-3.30;78.50;;;;;;6214646;23;20007;-64
2021/12/27 08:23:38;;;;;;;11.27;6.03;;;-3.30;78.60;;;;;;6213942;23;20004;-64
2021/12/27 08:26:04;;;;;;;9.82;5.65;;;-3.30;78.50;;;;;;6213723;23;20335;-64
2021/12/27 08:28:30;;;;;;;12.43;6.88;;;-3.20;78.40;;;;;;6214281;23;20011;-64
2021/12/27 08:30:56;;;;;;;12.30;6.85;;;-3.20;78.30;;;;;;6214223;23;20012;-65
2021/12/27 08:33:21;;;;;;;12.18;7.15;;;-3.20;78.30;;;;;;6213746;23;20001;-65
2021/12/27 08:35:47;;;;;;;13.60;7.95;;;-3.20;78.30;;;;;;6214030;23;20005;-64
2021/12/27 08:38:13;;;;;;;14.07;7.80;;;-3.10;78.30;;;;;;6213884;23;20000;-65
2021/12/27 08:40:39;;;;;;;13.48;7.75;;;-3.10;78.30;;;;;;6214157;23;20439;-64
2021/12/27 08:43:05;;;;;;;14.18;8.00;;;-3.00;78.30;;;;;;6214328;23;20047;-64
2021/12/27 08:45:30;;;;;;;13.13;7.55;;;-3.00;78.10;;;;;;6213897;23;20011;-65
2021/12/27 08:47:56;;;;;;;14.05;7.97;;;-3.00;78.00;;;;;;6213949;23;20004;-65
2021/12/27 08:50:22;;;;;;;12.75;7.28;;;-3.00;78.00;;;;;;6213817;23;20135;-65
2021/12/27 08:52:50;;;;;;;12.93;7.40;;;-3.00;78.00;;;;;;6187329;23;20043;-64
2021/12/27 08:55:16;;;;;;;13.40;7.30;;;-3.00;78.00;;;;;;6214048;23;20000;-64
2021/12/27 08:57:43;;;;;;;12.57;7.03;;;-3.00;77.90;;;;;;6213694;23;20000;-64
2021/12/27 09:00:11;;;;;;;11.65;6.78;;;-3.00;77.90;;;;;;6213519;23;20067;-63
2021/12/27 09:02:37;;;;;;;12.25;7.45;;;-3.00;77.90;;;;;;6213708;23;20005;-64
2021/12/27 09:05:04;;;;;;;12.57;6.95;;;-3.00;77.90;;;;;;6213871;23;20373;-65
2021/12/27 09:07:30;;;;;;;12.95;7.03;;;-3.00;77.90;;;;;;6213846;23;20027;-63
2021/12/27 09:09:56;;;;;;;12.43;7.35;;;-3.00;78.00;;;;;;6213625;23;20012;-64
2021/12/27 09:12:22;;;;;;;12.73;6.60;;;-3.00;78.00;;;;;;6186967;23;20028;-64
2021/12/27 09:14:47;;;;;;;12.27;6.60;;;-3.00;77.90;;;;;;6214230;23;20072;-63
2021/12/27 09:17:13;;;;;;;12.73;7.38;;;-3.00;77.90;;;;;;6214108;23;20284;-64
2021/12/27 09:19:39;;;;;;;12.60;7.55;;;-3.00;77.80;;;;;;6213876;23;20023;-64
2021/12/27 09:22:05;;;;;;;13.88;8.05;;;-2.90;77.80;;;;;;6213107;23;20001;-63
2021/12/27 09:24:31;;;;;;;13.65;8.10;;;-3.00;77.70;;;;;;6213471;23;20306;-64
2021/12/27 09:26:58;;;;;;;14.85;8.63;;;-2.90;77.90;;;;;;6213106;23;20021;-64
2021/12/27 09:29:23;;;;;;;13.85;8.55;;;-2.90;77.80;;;;;;6214192;23;20012;-64
2021/12/27 09:31:52;;;;;;;13.70;7.90;;;-2.90;77.80;;;;;;6213417;23;20032;-64
2021/12/27 09:34:18;;;;;;;12.60;7.68;;;-2.90;78.30;;;;;;6213397;23;20077;-64
2021/12/27 09:36:44;;;;;;;13.38;7.88;;;-2.90;77.80;;;;;;6213528;23;20028;-64
2021/12/27 09:39:10;;;;;;;14.57;8.35;;;-2.90;77.80;;;;;;6213275;23;20004;-63
2021/12/27 09:41:36;;;;;;;14.05;8.25;;;-2.90;77.90;;;;;;6213526;23;20028;-64
2021/12/27 09:44:04;;;;;;;13.10;7.93;;;-2.80;78.00;;;;;;6213109;23;20001;-63
2021/12/27 09:46:29;;;;;;;14.75;8.68;;;-2.80;77.90;;;;;;6213681;23;20004;-64
2021/12/27 09:48:58;;;;;;;13.73;8.65;;;-2.80;77.90;;;;;;6213261;23;20032;-64
2021/12/27 09:51:26;;;;;;;15.20;9.18;;;-2.80;77.70;;;;;;6213506;23;20043;-64
2021/12/27 09:53:53;;;;;;;17.02;9.68;;;-2.70;77.80;;;;;;6213240;23;20360;-64
2021/12/27 09:56:18;;;;;;;16.90;10.00;;;-2.70;77.80;;;;;;6212971;23;20005;-64
2021/12/27 09:58:44;;;;;;;17.38;10.20;;;-2.70;77.90;;;;;;6213696;23;20008;-64
2021/12/27 10:01:10;;;;;;;23.73;13.88;;;-2.70;77.80;;;;;;6213558;23;20371;-65
2021/12/27 10:03:51;;;;;;;23.98;13.10;;;-2.60;78.00;;;;;;6213619;23;20000;-65
2021/12/27 10:06:18;;;;;;;20.45;12.50;;;-2.60;77.70;;;;;;6213146;23;20013;-65
2021/12/27 10:08:50;;;;;;;21.83;11.57;;;-2.60;77.60;;;;;;6213400;23;20075;-65
2021/12/27 10:11:32;;;;;;;22.60;12.05;;;-2.60;77.50;;;;;;6213939;23;20463;-65
2021/12/27 10:14:05;;;;;;;22.23;12.88;;;-2.60;77.40;;;;;;6213177;23;20008;-65
2021/12/27 10:16:33;;;;;;;24.98;13.45;;;-2.60;77.40;;;;;;6213430;23;20019;-64
2021/12/27 10:19:02;;;;;;;27.85;14.85;;;-2.60;77.40;;;;;;6213730;23;20024;-65
2021/12/27 10:21:28;;;;;;;40.72;19.98;;;-2.60;77.60;;;;;;6213350;23;20051;-65
2021/12/27 10:24:10;;;;;;;60.60;26.30;;;-2.60;77.40;;;;;;6213287;23;20372;-64
2021/12/27 10:26:37;;;;;;;52.42;24.13;;;-2.50;77.40;;;;;;6213340;23;20364;-65
2021/12/27 10:29:36;;;;;;;57.95;26.27;;;-2.50;77.20;;;;;;6213068;23;20009;-64
2021/12/27 10:32:16;;;;;;;56.42;24.65;;;-2.60;77.10;;;;;;6213243;23;20000;-65
2021/12/27 10:34:46;;;;;;;51.72;23.40;;;-2.60;77.00;;;;;;6213237;23;20373;-65
2021/12/27 10:37:17;;;;;;;49.45;22.52;;;-2.60;77.10;;;;;;6213260;23;20102;-64
2021/12/27 10:39:49;;;;;;;69.97;29.02;;;-2.60;77.20;;;;;;6213171;23;20005;-64
2021/12/27 10:42:17;;;;;;;66.43;27.52;;;-2.60;77.20;;;;;;6213267;23;19997;-64
2021/12/27 10:44:44;;;;;;;67.60;28.88;;;-2.60;77.40;;;;;;6213353;23;20023;-65
2021/12/27 10:47:36;;;;;;;76.72;30.88;;;-2.60;77.40;;;;;;6213004;23;20016;-65
2021/12/27 10:50:09;;;;;;;80.65;31.63;;;-2.60;77.30;;;;;;6214781;23;20378;-64
2021/12/27 10:52:59;;;;;;;75.80;30.85;;;-2.60;77.30;;;;;;6215385;23;20011;-65
2021/12/27 10:55:34;;;;;;;66.90;29.30;;;-2.60;77.30;;;;;;6214852;23;20001;-64
2021/12/27 10:58:18;;;;;;;63.83;27.05;;;-2.60;77.30;;;;;;6214829;23;20424;-65
2021/12/27 11:00:53;;;;;;;76.18;31.38;;;-2.70;77.30;;;;;;6211201;23;20005;-64
2021/12/27 11:03:37;;;;;;;70.28;28.60;;;-2.70;77.40;;;;;;6213444;23;19993;-64
2021/12/27 11:06:06;;;;;;;69.30;28.40;;;-2.60;77.60;;;;;;6215036;23;20001;-64
2021/12/27 11:08:33;;;;;;;54.70;24.27;;;-2.60;77.60;;;;;;6214931;23;20004;-65
2021/12/27 11:10:59;;;;;;;52.88;23.98;;;-2.60;77.60;;;;;;6215072;23;20083;-64
2021/12/27 11:13:26;;;;;;;41.92;20.20;;;-2.50;77.70;;;;;;6214736;23;20031;-65
2021/12/27 11:15:53;;;;;;;39.53;19.45;;;-2.50;77.60;;;;;;6214316;23;20008;-63
2021/12/27 11:18:19;;;;;;;35.85;17.60;;;-2.50;77.60;;;;;;6214957;23;20000;-64
2021/12/27 11:20:48;;;;;;;35.13;17.55;;;-2.50;77.50;;;;;;6214823;23;20035;-64
2021/12/27 11:23:15;;;;;;;37.03;18.83;;;-2.50;77.40;;;;;;6214908;23;20028;-64
2021/12/27 11:25:43;;;;;;;44.63;19.27;;;-2.50;77.40;;;;;;6214643;23;20091;-65
2021/12/27 11:28:42;;;;;;;49.30;21.83;;;-2.60;77.40;;;;;;6215251;23;20000;-64
2021/12/27 11:31:15;;;;;;;51.60;22.67;;;-2.60;77.60;;;;;;6214641;23;20001;-64
2021/12/27 11:33:57;;;;;;;54.05;23.88;;;-2.50;77.70;;;;;;6214674;23;20027;-64
2021/12/27 11:36:24;;;;;;;58.53;25.13;;;-2.50;77.60;;;;;;6214746;23;20412;-65
2021/12/27 11:38:51;;;;;;;60.28;25.58;;;-2.50;77.50;;;;;;6214549;23;20007;-64
2021/12/27 11:41:36;;;;;;;66.38;27.50;;;-2.50;77.50;;;;;;6214037;23;20003;-65
2021/12/27 11:44:08;;;;;;;63.40;25.83;;;-2.50;77.40;;;;;;6214874;23;20028;-65
2021/12/27 11:46:48;;;;;;;67.50;26.60;;;-2.40;77.30;;;;;;6214281;23;20005;-65
2021/12/27 11:49:15;;;;;;;58.47;24.27;;;-2.50;77.20;;;;;;6188016;23;20004;-65
2021/12/27 11:51:43;;;;;;;60.35;25.85;;;-2.50;77.30;;;;;;6214455;23;20000;-65
2021/12/27 11:54:29;;;;;;;52.85;23.90;;;-2.50;77.40;;;;;;6214449;23;20015;-65
2021/12/27 11:56:55;;;;;;;49.47;21.13;;;-2.50;77.40;;;;;;6214132;23;20424;-64
2021/12/27 11:59:36;;;;;;;47.80;20.92;;;-2.50;78.00;;;;;;6214209;23;20012;-64
2021/12/27 12:02:14;;;;;;;43.67;18.98;;;-2.50;77.60;;;;;;6214162;23;20072;-65
2021/12/27 12:04:50;;;;;;;39.50;18.88;;;-2.50;77.60;;;;;;6214137;23;20001;-64
2021/12/27 12:07:34;;;;;;;37.13;18.15;;;-2.50;77.60;;;;;;6214203;23;20054;-64
2021/12/27 12:10:02;;;;;;;36.47;16.77;;;-2.50;77.60;;;;;;6214468;23;20000;-64
2021/12/27 12:12:28;;;;;;;34.22;15.93;;;-2.50;77.60;;;;;;6213756;23;20087;-65
2021/12/27 12:14:56;;;;;;;31.60;16.20;;;-2.50;77.60;;;;;;6214063;23;20032;-65
2021/12/27 12:17:57;;;;;;;31.17;16.02;;;-2.50;77.50;;;;;;6214180;23;20116;-66
2021/12/27 12:20:27;;;;;;;34.05;15.70;;;-2.50;77.40;;;;;;6064026;23;20034;-65
2021/12/27 12:23:01;;;;;;;31.67;15.30;;;-2.60;77.40;;;;;;6187531;23;20074;-64
2021/12/27 12:25:27;;;;;;;32.33;15.43;;;-2.60;77.30;;;;;;6214014;23;20304;-64
2021/12/27 12:27:54;;;;;;;30.63;14.68;;;-2.60;77.40;;;;;;6214003;23;20013;-64
2021/12/27 12:30:21;;;;;;;26.83;13.15;;;-2.70;77.30;;;;;;6214347;23;20028;-65
2021/12/27 12:33:02;;;;;;;25.48;12.90;;;-2.70;77.50;;;;;;6213674;23;20005;-65
2021/12/27 12:35:41;;;;;;;23.13;12.10;;;-2.80;77.60;;;;;;6213839;23;20301;-64
2021/12/27 12:38:20;;;;;;;20.88;10.85;;;-2.80;77.70;;;;;;6213421;23;20000;-63